Time;durP1;ratioP1;P1;durP2;ratioP2;P2;SDS_P1;SDS_P2;PMS_P1;PMS_P2;Temp;Humidity;BMP_temperature;BMP_pressure;BME280_temperature;BME280_humidity;BME280_pressure;Samples;Min_cycle;Max_cycle;Signal;HPM_P1;HPM_P2
2023/06/27 00:01:52;;;;;;;4.60;1.80;;;;;;;15.15;79.98;101090.66;107143;1256;61114;-68
2023/06/27 00:04:23;;;;;;;6.20;1.90;;;;;;;15.14;79.94;101094.23;106710;1260;73387;-67
2023/06/27 00:06:50;;;;;;;6.60;1.90;;;;;;;15.13;79.95;101097.42;107225;1256;69370;-69
2023/06/27 00:09:17;;;;;;;4.80;2.00;;;;;;;15.11;79.86;101099.02;107758;1256;71524;-68
2023/06/27 00:11:44;;;;;;;4.90;2.10;;;;;;;15.09;79.64;101101.36;106958;1257;62007;-69
2023/06/27 00:14:13;;;;;;;6.60;2.00;;;;;;;15.09;79.46;101102.05;107123;1256;60408;-69
2023/06/27 00:16:41;;;;;;;5.40;1.80;;;;;;;15.08;79.47;101102.63;108116;1256;74749;-69
2023/06/27 00:19:08;;;;;;;5.30;1.90;;;;;;;15.05;79.47;101105.40;106987;1256;71231;-70
2023/06/27 00:21:35;;;;;;;9.50;1.90;;;;;;;15.04;79.50;101107.14;106773;1256;71605;-67
2023/06/27 00:24:03;;;;;;;7.40;2.20;;;;;;;15.03;79.33;101105.58;106855;1256;62087;-67
2023/06/27 00:26:30;;;;;;;5.10;1.60;;;;;;;15.00;79.64;101105.06;107177;1256;59112;-70
2023/06/27 00:28:57;;;;;;;6.70;2.00;;;;;;;14.97;79.63;101103.81;107180;1256;75687;-68
2023/06/27 00:31:24;;;;;;;7.20;1.90;;;;;;;14.95;79.53;101107.00;106825;1262;69725;-69
2023/06/27 00:33:51;;;;;;;5.90;2.10;;;;;;;14.93;79.73;101104.92;106603;1256;72747;-68
2023/06/27 00:36:18;;;;;;;8.30;1.80;;;;;;;14.91;79.91;101105.32;107761;1256;62122;-68
2023/06/27 00:38:45;;;;;;;7.50;2.10;;;;;;;14.89;80.14;101105.55;107617;1257;61237;-70
2023/06/27 00:41:12;;;;;;;8.80;2.10;;;;;;;14.87;80.42;101108.96;107095;1256;73525;-69
2023/06/27 00:43:40;;;;;;;7.50;2.30;;;;;;;14.85;80.78;101109.60;106404;1258;653198;-68
2023/06/27 00:46:08;;;;;;;5.90;2.00;;;;;;;14.83;81.39;101110.60;107281;1256;71476;-69
2023/06/27 00:48:36;;;;;;;7.10;2.00;;;;;;;14.79;81.45;101103.38;108430;1256;60992;-69
2023/06/27 00:51:06;;;;;;;11.50;2.20;;;;;;;14.77;81.80;101108.84;107251;1256;61913;-68
2023/06/27 00:53:33;;;;;;;9.90;2.10;;;;;;;14.73;82.39;101111.46;107874;1259;73457;-69
2023/06/27 00:55:59;;;;;;;7.00;2.10;;;;;;;14.70;82.73;101112.55;107492;1257;72821;-69
2023/06/27 00:58:26;;;;;;;7.20;2.00;;;;;;;14.67;83.32;101111.45;107561;1256;59517;-69
2023/06/27 01:00:53;;;;;;;5.80;2.30;;;;;;;14.64;84.18;101109.91;106964;1260;61138;-68
2023/06/27 01:03:21;;;;;;;7.20;2.00;;;;;;;14.62;84.45;101113.17;107300;1256;59420;-69
2023/06/27 01:05:49;;;;;;;9.20;2.20;;;;;;;14.60;84.89;101114.34;106984;1257;73805;-70
2023/06/27 01:08:33;;;;;;;7.80;2.50;;;;;;;14.58;85.19;101115.35;107051;1256;70433;-69
2023/06/27 01:11:08;;;;;;;8.00;2.30;;;;;;;14.53;85.68;101116.43;107276;1256;72700;-69
2023/06/27 01:13:42;;;;;;;6.70;2.50;;;;;;;14.50;85.92;101116.85;106943;1256;62080;-68
2023/06/27 01:16:10;;;;;;;7.40;2.40;;;;;;;14.46;86.20;101115.73;106794;1256;61217;-69
2023/06/27 01:18:40;;;;;;;6.50;2.00;;;;;;;14.42;86.26;101117.10;107225;1256;75774;-68
2023/06/27 01:21:08;;;;;;;7.90;2.50;;;;;;;14.37;86.50;101116.44;106924;1256;70044;-69
2023/06/27 01:23:54;;;;;;;9.40;2.50;;;;;;;14.33;86.51;101117.45;107260;1256;71532;-69
2023/06/27 01:26:22;;;;;;;7.70;2.20;;;;;;;14.27;86.39;101114.04;106810;1256;61381;-69
2023/06/27 01:28:50;;;;;;;6.90;2.40;;;;;;;14.23;86.65;101113.46;106971;1256;61231;-69
2023/06/27 01:31:46;;;;;;;6.50;2.40;;;;;;;14.20;86.61;101114.08;106770;1257;74751;-69
2023/06/27 01:34:33;;;;;;;7.00;2.10;;;;;;;14.13;86.66;101108.30;106799;1257;72238;-68
2023/06/27 01:37:05;;;;;;;6.40;2.20;;;;;;;14.07;86.78;101111.23;107355;1256;72224;-70
2023/06/27 01:39:44;;;;;;;5.40;1.90;;;;;;;14.03;86.64;101107.80;106664;1257;62154;-68
2023/06/27 01:42:20;;;;;;;8.00;2.30;;;;;;;13.96;86.77;101109.16;107180;1260;61298;-69
2023/06/27 01:44:48;;;;;;;8.40;2.30;;;;;;;13.91;86.72;101108.39;107292;1256;75656;-73
2023/06/27 01:47:16;;;;;;;7.20;2.20;;;;;;;13.86;86.79;101105.36;106627;1256;71617;-69
2023/06/27 01:49:44;;;;;;;6.20;1.70;;;;;;;13.82;86.56;101104.58;106363;1260;72979;-71
2023/06/27 01:52:12;;;;;;;6.60;2.20;;;;;;;13.78;86.33;101100.83;106708;1256;61865;-68
2023/06/27 01:54:43;;;;;;;5.60;1.90;;;;;;;13.75;85.74;101105.14;107276;1260;61176;-70
2023/06/27 01:57:11;;;;;;;6.00;1.90;;;;;;;13.73;85.39;101098.95;106818;1256;74835;-69
2023/06/27 01:59:38;;;;;;;5.70;1.90;;;;;;;13.71;84.96;101100.44;106471;1256;69697;-68
2023/06/27 02:02:05;;;;;;;5.00;1.90;;;;;;;13.70;84.75;101094.06;107023;1257;72666;-69
2023/06/27 02:04:32;;;;;;;6.00;2.10;;;;;;;13.67;84.50;101093.99;107207;1258;61767;-69
2023/06/27 02:06:59;;;;;;;5.20;1.50;;;;;;;13.66;84.36;101094.34;106589;1257;61270;-70
2023/06/27 02:09:26;;;;;;;7.10;1.80;;;;;;;13.65;84.06;101096.55;106404;1260;72975;-68
2023/06/27 02:11:52;;;;;;;5.00;1.70;;;;;;;13.64;83.93;101092.27;106412;1257;61186;-68
2023/06/27 02:14:19;;;;;;;4.60;1.40;;;;;;;13.63;83.99;101093.08;106639;1257;72524;-69
2023/06/27 02:16:46;;;;;;;6.60;1.60;;;;;;;13.62;83.84;101093.27;108578;1257;60889;-71
2023/06/27 02:19:13;;;;;;;6.40;1.90;;;;;;;13.60;83.75;101097.22;108612;1260;60518;-71
2023/06/27 02:21:40;;;;;;;5.00;1.60;;;;;;;13.57;83.76;101094.15;107559;1256;73140;-69
2023/06/27 02:24:06;;;;;;;4.80;1.70;;;;;;;13.56;83.65;101098.61;107879;1257;70042;-69
2023/06/27 02:26:34;;;;;;;4.20;1.80;;;;;;;13.54;83.58;101096.78;107957;1256;72728;-70
2023/06/27 02:29:00;;;;;;;5.50;1.70;;;;;;;13.52;83.61;101096.35;106943;1257;62097;-70
2023/06/27 02:31:27;;;;;;;5.00;1.90;;;;;;;13.50;83.54;101093.77;107055;1260;59449;-71
2023/06/27 02:33:54;;;;;;;7.40;1.70;;;;;;;13.47;83.32;101094.06;107212;1257;73138;-71
2023/06/27 02:36:22;;;;;;;4.40;1.50;;;;;;;13.43;83.45;101091.66;107625;1260;71365;-70
2023/06/27 02:38:49;;;;;;;4.40;1.50;;;;;;;13.39;83.27;101091.82;107858;1256;72805;-68
2023/06/27 02:41:16;;;;;;;4.80;1.80;;;;;;;13.36;83.53;101089.89;107130;1260;60779;-69
2023/06/27 02:43:43;;;;;;;4.40;1.60;;;;;;;13.33;83.47;101092.26;107078;1257;60413;-71
2023/06/27 02:46:10;;;;;;;4.10;1.70;;;;;;;13.30;83.71;101091.52;107338;1260;74784;-69
2023/06/27 02:48:37;;;;;;;5.50;1.70;;;;;;;13.28;83.64;101095.17;107781;1257;70024;-69
2023/06/27 02:51:03;;;;;;;4.00;1.50;;;;;;;13.24;83.61;101096.25;107846;1256;72691;-69
2023/06/27 02:53:30;;;;;;;6.20;1.70;;;;;;;13.21;83.87;101099.13;108695;1260;60874;-70
2023/06/27 02:56:02;;;;;;;4.70;1.70;;;;;;;13.19;83.84;101102.33;107882;1257;61234;-68
2023/06/27 02:58:29;;;;;;;5.30;1.50;;;;;;;13.18;83.85;101102.92;106940;1260;73149;-70
2023/06/27 03:00:59;;;;;;;5.40;1.80;;;;;;;13.17;83.82;101103.31;106584;1256;69920;-69
2023/06/27 03:03:26;;;;;;;5.00;1.60;;;;;;;13.16;83.78;101104.23;106467;1257;71577;-69
2023/06/27 03:05:53;;;;;;;7.40;1.60;;;;;;;13.15;83.59;101103.93;106258;1261;61362;-68
2023/06/27 03:08:20;;;;;;;4.10;1.50;;;;;;;13.14;83.50;101106.38;106221;1260;61260;-69
2023/06/27 03:10:47;;;;;;;4.90;1.50;;;;;;;13.12;83.51;101103.04;106475;1260;74668;-69
2023/06/27 03:13:13;;;;;;;5.90;1.70;;;;;;;13.12;83.55;101104.50;107778;1260;69177;-69
2023/06/27 03:15:40;;;;;;;4.70;1.50;;;;;;;13.11;83.48;101100.02;106560;1257;71792;-69
2023/06/27 03:18:08;;;;;;;7.70;1.60;;;;;;;13.10;83.54;101100.27;106600;1258;61301;-69
2023/06/27 03:20:35;;;;;;;3.40;1.40;;;;;;;13.10;83.38;101101.20;106324;1260;61848;-68
2023/06/27 03:23:02;;;;;;;7.50;1.60;;;;;;;13.11;83.62;101101.27;106400;1257;73459;-69
2023/06/27 03:25:28;;;;;;;4.30;1.60;;;;;;;13.11;83.44;101098.39;106421;1257;70233;-70
2023/06/27 03:27:55;;;;;;;4.40;1.40;;;;;;;13.12;83.25;101097.17;106116;1260;71543;-68
2023/06/27 03:30:22;;;;;;;5.60;1.70;;;;;;;13.14;83.29;101094.30;107514;1262;63263;-69
2023/06/27 03:32:49;;;;;;;3.40;1.50;;;;;;;13.15;83.15;101092.25;106886;1259;61275;-71
2023/06/27 03:35:15;;;;;;;5.30;1.50;;;;;;;13.17;83.07;101088.59;106657;1261;73462;-69
2023/06/27 03:37:42;;;;;;;4.60;1.50;;;;;;;13.18;82.89;101090.83;106438;1257;69464;-70
2023/06/27 03:40:09;;;;;;;5.50;1.60;;;;;;;13.21;82.90;101093.63;106112;1262;72639;-71
2023/06/27 03:42:37;;;;;;;5.00;1.60;;;;;;;13.22;82.93;101092.65;106354;1260;61383;-70
2023/06/27 03:45:04;;;;;;;4.20;1.60;;;;;;;13.24;82.71;101092.05;106597;1259;61233;-70
2023/06/27 03:47:30;;;;;;;4.40;1.90;;;;;;;13.26;82.75;101093.61;106977;1261;73509;-70
2023/06/27 03:49:57;;;;;;;4.60;1.80;;;;;;;13.29;82.84;101093.09;107494;1260;69665;-70
2023/06/27 03:52:24;;;;;;;8.50;1.40;;;;;;;13.32;82.80;101093.06;106336;1262;72648;-69
2023/06/27 03:54:51;;;;;;;5.90;1.90;;;;;;;13.35;82.56;101091.44;106484;1260;62083;-71
2023/06/27 03:57:18;;;;;;;5.50;1.60;;;;;;;13.39;82.59;101092.77;106402;1262;61273;-69
2023/06/27 03:59:45;;;;;;;8.60;2.10;;;;;;;13.43;82.65;101090.98;106395;1257;73450;-70
2023/06/27 04:02:11;;;;;;;4.90;1.70;;;;;;;13.47;82.72;101095.13;106374;1259;69913;-69
2023/06/27 04:04:38;;;;;;;4.60;1.80;;;;;;;13.53;82.53;101096.67;106285;1262;72825;-68
2023/06/27 04:07:05;;;;;;;3.70;1.60;;;;;;;13.58;82.46;101094.77;107349;1258;61129;-68
2023/06/27 04:09:32;;;;;;;4.60;1.70;;;;;;;13.62;82.25;101092.77;107454;1260;61155;-70
2023/06/27 04:11:59;;;;;;;5.90;1.70;;;;;;;13.68;82.36;101094.79;106689;1263;75181;-69
2023/06/27 04:14:27;;;;;;;6.70;1.90;;;;;;;13.73;82.35;101096.52;106517;1262;69968;-69
2023/06/27 04:16:55;;;;;;;5.40;1.50;;;;;;;13.78;82.26;101097.09;106532;1257;73122;-68
2023/06/27 04:19:22;;;;;;;4.40;1.30;;;;;;;13.84;82.16;101098.32;106589;1257;61778;-68
2023/06/27 04:21:48;;;;;;;3.80;1.60;;;;;;;13.90;82.16;101094.68;106513;1257;61271;-69
2023/06/27 04:24:15;;;;;;;4.30;1.60;;;;;;;13.95;81.96;101100.24;107144;1262;74411;-68
2023/06/27 04:26:42;;;;;;;5.50;1.60;;;;;;;14.00;82.13;101101.58;106937;1257;71137;-70
2023/06/27 04:29:09;;;;;;;4.20;1.60;;;;;;;14.05;82.08;101097.17;106426;1257;71956;-68
2023/06/27 04:31:36;;;;;;;6.50;1.60;;;;;;;14.12;81.83;101097.77;106538;1257;61274;-74
2023/06/27 04:34:03;;;;;;;3.80;1.50;;;;;;;14.20;81.70;101100.90;106656;1257;61146;-74
2023/06/27 04:36:30;;;;;;;5.60;1.60;;;;;;;14.27;81.17;101099.02;106375;1257;75165;-73
2023/06/27 04:38:56;;;;;;;4.60;1.90;;;;;;;14.34;80.96;101102.48;106419;1259;70010;-74
2023/06/27 04:41:23;;;;;;;10.30;1.70;;;;;;;14.42;80.56;101103.79;106927;1257;73090;-71
2023/06/27 04:43:50;;;;;;;3.70;1.50;;;;;;;14.50;80.11;101106.63;106651;1257;62084;-73
2023/06/27 04:46:17;;;;;;;6.90;2.00;;;;;;;14.58;79.95;101105.70;106654;1257;61714;-69
2023/06/27 04:48:44;;;;;;;3.60;1.50;;;;;;;14.65;79.30;101104.21;107094;1258;73591;-72
2023/06/27 04:51:10;;;;;;;5.50;1.40;;;;;;;14.75;79.24;101106.09;106668;1260;69643;-73
2023/06/27 04:53:37;;;;;;;7.50;1.80;;;;;;;14.83;78.71;101104.11;106409;1258;71471;-72
2023/06/27 04:56:03;;;;;;;6.10;2.30;;;;;;;14.91;78.47;101103.28;106801;1262;61279;-73
2023/06/27 04:58:30;;;;;;;3.90;1.40;;;;;;;15.00;78.35;101102.02;106460;1257;62936;-74
2023/06/27 05:00:57;;;;;;;4.60;1.60;;;;;;;15.07;77.67;101104.71;106918;1262;61203;-75
2023/06/27 05:03:24;;;;;;;6.10;1.60;;;;;;;15.14;77.36;101104.30;107162;1257;68970;-72
2023/06/27 05:05:51;;;;;;;5.90;1.70;;;;;;;15.22;77.22;101102.92;106504;1257;71120;-71
2023/06/27 05:08:18;;;;;;;4.70;1.50;;;;;;;15.29;76.68;101104.20;106847;1257;61805;-74
2023/06/27 05:10:45;;;;;;;4.70;1.50;;;;;;;15.38;76.67;101104.76;106229;1258;62398;-72
2023/06/27 05:13:15;;;;;;;7.70;2.00;;;;;;;15.44;76.51;101102.45;106286;1261;74707;-74
2023/06/27 05:15:42;;;;;;;8.10;2.00;;;;;;;15.53;76.11;101099.65;106411;1260;69805;-74
2023/06/27 05:18:14;;;;;;;8.00;2.10;;;;;;;15.60;76.39;101096.12;106956;1258;72775;-76
2023/06/27 05:20:41;;;;;;;8.30;1.70;;;;;;;15.70;76.46;101094.56;107963;1257;62047;-72
2023/06/27 05:23:08;;;;;;;6.50;1.60;;;;;;;15.78;76.03;101099.85;107031;1257;61291;-70
2023/06/27 05:25:35;;;;;;;8.30;1.60;;;;;;;15.85;75.39;101100.78;107554;1258;73500;-76
2023/06/27 05:28:02;;;;;;;3.30;1.30;;;;;;;15.93;75.39;101096.73;106754;1257;70855;-71
2023/06/27 05:30:29;;;;;;;3.60;1.40;;;;;;;16.00;74.62;101100.42;106300;1257;71506;-72
2023/06/27 05:33:01;;;;;;;5.90;1.40;;;;;;;16.07;74.08;101096.70;106154;1258;61371;-74
2023/06/27 05:35:28;;;;;;;7.90;1.90;;;;;;;16.13;73.49;101097.91;106526;1257;61276;-71
2023/06/27 05:37:55;;;;;;;4.60;1.40;;;;;;;16.19;73.40;101098.80;106769;1263;73477;-72
2023/06/27 05:40:21;;;;;;;5.80;1.60;;;;;;;16.27;73.26;101096.21;106431;1258;71288;-72
2023/06/27 05:42:49;;;;;;;3.60;1.50;;;;;;;16.33;72.74;101092.27;106588;1262;71466;-71
2023/06/27 05:45:15;;;;;;;4.70;1.30;;;;;;;16.37;71.87;101096.56;107079;1258;61339;-73
2023/06/27 05:47:44;;;;;;;6.10;1.80;;;;;;;16.44;71.92;101095.52;106249;1257;61276;-71
2023/06/27 05:50:11;;;;;;;4.00;1.40;;;;;;;16.50;71.50;101098.17;105850;1257;73625;-72
2023/06/27 05:52:38;;;;;;;6.90;1.70;;;;;;;16.55;71.41;101094.40;107945;1257;69987;-72
2023/06/27 05:55:05;;;;;;;4.70;1.50;;;;;;;16.63;70.76;101096.48;108708;1257;72642;-73
2023/06/27 05:57:32;;;;;;;5.70;1.80;;;;;;;16.72;70.62;101095.52;107333;1257;61461;-73
2023/06/27 05:59:59;;;;;;;5.70;1.20;;;;;;;16.81;69.91;101095.30;107377;1261;61293;-72
2023/06/27 06:02:26;;;;;;;3.60;1.30;;;;;;;16.87;69.40;101091.84;108056;1257;74759;-71
2023/06/27 06:04:54;;;;;;;4.50;1.20;;;;;;;16.91;68.80;101097.86;106958;1260;70175;-72
2023/06/27 06:07:21;;;;;;;5.60;1.40;;;;;;;16.96;68.38;101093.04;106431;1258;70467;-71
2023/06/27 06:09:48;;;;;;;2.90;1.30;;;;;;;17.05;68.42;101093.52;106147;1257;61256;-71
2023/06/27 06:12:15;;;;;;;3.40;1.50;;;;;;;17.12;68.06;101094.67;106272;1257;61283;-73
2023/06/27 06:14:42;;;;;;;3.20;1.30;;;;;;;17.19;68.15;101094.46;107132;1263;73479;-72
2023/06/27 06:17:09;;;;;;;4.30;1.40;;;;;;;17.25;67.12;101099.16;107181;1257;69042;-72
2023/06/27 06:19:36;;;;;;;3.50;1.30;;;;;;;17.30;67.32;101091.84;106148;1256;71266;-71
2023/06/27 06:22:03;;;;;;;4.70;1.40;;;;;;;17.39;67.57;101096.14;106108;1259;62150;-70
2023/06/27 06:24:29;;;;;;;9.50;3.70;;;;;;;17.45;67.02;101095.23;107195;1256;61246;-71
2023/06/27 06:26:56;;;;;;;8.20;2.90;;;;;;;17.55;67.20;101096.71;106656;1257;73525;-72
2023/06/27 06:29:23;;;;;;;6.40;1.40;;;;;;;17.61;66.67;101098.43;106712;1257;72952;-71
2023/06/27 06:31:50;;;;;;;5.60;1.50;;;;;;;17.69;66.54;101098.86;106863;1263;73559;-70
2023/06/27 06:34:17;;;;;;;6.10;1.20;;;;;;;17.74;65.60;101109.98;106556;1257;62513;-69
2023/06/27 06:36:44;;;;;;;4.80;1.20;;;;;;;17.71;65.07;101110.36;107397;1256;59020;-71
2023/06/27 06:39:10;;;;;;;3.90;1.20;;;;;;;17.76;65.63;101102.46;106723;1262;75868;-70
2023/06/27 06:41:37;;;;;;;6.80;1.40;;;;;;;17.86;66.26;101104.27;106496;1257;71728;-70
2023/06/27 06:44:04;;;;;;;7.70;1.40;;;;;;;17.93;65.38;101109.90;106621;1263;72162;-70
2023/06/27 06:46:30;;;;;;;9.60;1.30;;;;;;;17.95;64.83;101105.72;107013;1261;62094;-68
2023/06/27 06:48:57;;;;;;;4.90;1.50;;;;;;;17.96;64.73;101101.98;106340;1257;61257;-70
2023/06/27 06:51:24;;;;;;;3.30;1.10;;;;;;;17.97;64.04;101106.33;107558;1257;74931;-69
2023/06/27 06:53:51;;;;;;;7.50;1.50;;;;;;;17.92;63.94;101108.75;106174;1262;71830;-71
2023/06/27 06:56:18;;;;;;;3.40;1.10;;;;;;;17.92;64.02;101105.52;107269;1257;72801;-70
2023/06/27 06:58:45;;;;;;;5.90;1.70;;;;;;;17.95;64.57;101100.39;106966;1256;62087;-71
2023/06/27 07:01:12;;;;;;;5.00;1.30;;;;;;;18.02;64.31;101095.20;106616;1257;61255;-73
2023/06/27 07:03:39;;;;;;;6.30;1.50;;;;;;;18.09;64.40;101096.61;106118;1257;73528;-70
2023/06/27 07:06:06;;;;;;;9.40;1.80;;;;;;;18.16;64.42;101098.67;106519;1257;70010;-70
2023/06/27 07:08:34;;;;;;;6.50;1.50;;;;;;;18.18;64.12;101091.40;107123;1256;72772;-69
2023/06/27 07:11:00;;;;;;;7.50;1.60;;;;;;;18.24;63.98;101090.33;106327;1256;62150;-70
2023/06/27 07:13:27;;;;;;;8.20;3.90;;;;;;;18.34;63.88;101086.30;106332;1257;61263;-69
2023/06/27 07:15:54;;;;;;;23.40;16.60;;;;;;;18.40;63.86;101085.84;107092;1258;73714;-71
2023/06/27 07:18:21;;;;;;;4.90;1.30;;;;;;;18.49;63.83;101087.43;107104;1257;69712;-71
2023/06/27 07:20:47;;;;;;;6.00;1.20;;;;;;;18.47;62.24;101087.31;107342;1258;71543;-70
2023/06/27 07:23:16;;;;;;;6.70;1.30;;;;;;;18.52;63.29;101082.62;106363;1257;62073;-73
2023/06/27 07:25:42;;;;;;;4.20;1.40;;;;;;;18.61;63.72;101076.38;106794;1257;61262;-70
2023/06/27 07:28:10;;;;;;;7.70;1.50;;;;;;;18.73;63.76;101076.25;106046;1257;72482;-70
2023/06/27 07:30:36;;;;;;;44.30;37.80;;;;;;;18.86;62.40;101079.14;106153;1257;69682;-69
2023/06/27 07:33:04;;;;;;;4.60;1.20;;;;;;;18.96;61.91;101078.77;106732;1257;72796;-70
2023/06/27 07:35:30;;;;;;;6.60;1.20;;;;;;;18.94;60.90;101085.48;107022;1257;61285;-69
2023/06/27 07:37:57;;;;;;;6.10;1.30;;;;;;;18.91;60.74;101071.20;106445;1258;61277;-70
2023/06/27 07:40:24;;;;;;;5.90;1.50;;;;;;;18.99;61.14;101070.83;106415;1257;74806;-68
2023/06/27 07:42:51;;;;;;;3.20;1.00;;;;;;;19.05;61.32;101066.59;106908;1260;61873;-70
2023/06/27 07:45:18;;;;;;;4.70;1.30;;;;;;;19.06;61.52;101070.48;106942;1257;71558;-71
2023/06/27 07:47:45;;;;;;;4.20;1.10;;;;;;;18.99;61.33;101069.19;106743;1257;61190;-70
2023/06/27 07:50:12;;;;;;;5.80;1.40;;;;;;;19.00;61.80;101068.46;107004;1257;61308;-72
2023/06/27 07:52:39;;;;;;;3.30;1.10;;;;;;;19.11;61.23;101060.66;107467;1256;73731;-69
2023/06/27 07:55:06;;;;;;;4.40;1.10;;;;;;;19.35;60.69;101066.41;106231;1258;71233;-70
2023/06/27 07:57:33;;;;;;;4.90;1.20;;;;;;;19.60;58.22;101060.11;106607;1257;71963;-69
2023/06/27 08:00:00;;;;;;;6.10;1.10;;;;;;;19.75;58.80;101060.05;106520;1257;62884;-68
2023/06/27 08:02:27;;;;;;;7.90;1.50;;;;;;;19.75;58.70;101060.58;106909;1256;62849;-68
2023/06/27 08:04:54;;;;;;;8.20;1.20;;;;;;;19.56;57.06;101060.74;106328;1257;74370;-70
2023/06/27 08:07:21;;;;;;;8.00;1.90;;;;;;;19.44;56.62;101066.39;106940;1257;70282;-70
2023/06/27 08:09:48;;;;;;;4.90;0.80;;;;;;;19.56;55.42;101057.89;106848;1257;73875;-71
2023/06/27 08:12:15;;;;;;;3.40;1.00;;;;;;;19.66;54.51;101059.14;107283;1257;59233;-69
2023/06/27 08:14:45;;;;;;;5.20;1.10;;;;;;;19.75;55.93;101052.04;106243;1261;61332;-71
2023/06/27 08:17:11;;;;;;;4.10;0.90;;;;;;;19.95;55.97;101057.62;106946;1256;73419;-72
2023/06/27 08:19:38;;;;;;;6.00;1.30;;;;;;;20.11;54.72;101063.04;106367;1261;69580;-71
2023/06/27 08:22:05;;;;;;;13.50;1.70;;;;;;;20.16;52.58;101058.45;106460;1256;71765;-71
2023/06/27 08:24:32;;;;;;;7.20;1.20;;;;;;;20.22;52.04;101053.79;106239;1256;61371;-70
2023/06/27 08:26:59;;;;;;;5.60;1.20;;;;;;;20.31;52.12;101053.86;106957;1256;61639;-73
2023/06/27 08:29:26;;;;;;;3.80;1.10;;;;;;;20.51;51.62;101055.42;107259;1258;74407;-71
2023/06/27 08:31:58;;;;;;;5.70;1.50;;;;;;;20.60;50.72;101053.14;106238;1261;70686;-70
2023/06/27 08:34:26;;;;;;;4.90;1.00;;;;;;;20.61;51.25;101055.52;106305;1256;71695;-72
2023/06/27 08:36:54;;;;;;;3.40;0.80;;;;;;;20.49;50.67;101055.27;106936;1257;61822;-72
2023/06/27 08:39:20;;;;;;;3.70;0.80;;;;;;;20.36;50.84;101055.45;106625;1256;61223;-72
2023/06/27 08:41:48;;;;;;;2.70;0.70;;;;;;;20.46;51.44;101050.98;106194;1257;74676;-72
2023/06/27 08:44:15;;;;;;;5.50;1.00;;;;;;;20.45;49.37;101058.95;106971;1256;70031;-70
2023/06/27 08:46:46;;;;;;;2.50;1.00;;;;;;;20.34;49.53;101055.48;106615;1258;72701;-72
2023/06/27 08:49:21;;;;;;;3.20;0.80;;;;;;;20.29;50.10;101046.98;106870;1258;61188;-73
2023/06/27 08:51:52;;;;;;;3.50;0.90;;;;;;;20.25;50.83;101046.92;106317;1256;61257;-71
2023/06/27 08:54:32;;;;;;;3.00;0.90;;;;;;;20.12;50.06;101055.40;107572;1262;74322;-72
2023/06/27 08:57:01;;;;;;;2.90;0.60;;;;;;;20.00;51.04;101045.62;106476;1257;69952;-70
2023/06/27 08:59:31;;;;;;;3.40;0.80;;;;;;;19.92;51.56;101048.98;106206;1260;71457;-71
2023/06/27 09:02:00;;;;;;;2.90;0.70;;;;;;;19.94;51.62;101040.83;106887;1256;61377;-70
2023/06/27 09:04:27;;;;;;;4.30;1.00;;;;;;;20.21;51.38;101035.66;106235;1260;61250;-70
2023/06/27 09:06:55;;;;;;;3.40;0.90;;;;;;;20.58;50.37;101028.69;106785;1256;74767;-72
2023/06/27 09:09:22;;;;;;;2.60;0.80;;;;;;;20.89;50.18;101026.03;107177;1256;69685;-69
2023/06/27 09:11:51;;;;;;;3.30;1.00;;;;;;;20.91;48.57;101041.46;106754;1256;71120;-70
2023/06/27 09:14:18;;;;;;;3.30;0.80;;;;;;;20.77;47.76;101043.98;106245;1258;61293;-70
2023/06/27 09:16:45;;;;;;;5.70;1.10;;;;;;;20.71;47.64;101039.23;106336;1256;61222;-72
2023/06/27 09:19:13;;;;;;;6.10;0.90;;;;;;;20.89;48.07;101030.30;106606;1256;75735;-70
2023/06/27 09:21:42;;;;;;;3.60;0.90;;;;;;;21.06;48.48;101027.66;107180;1258;69637;-70
2023/06/27 09:24:13;;;;;;;3.40;0.90;;;;;;;21.06;47.78;101037.16;106386;1256;72686;-72
2023/06/27 09:26:40;;;;;;;4.10;0.80;;;;;;;21.01;48.94;101021.48;106996;1256;62602;-73
2023/06/27 09:29:07;;;;;;;3.50;0.80;;;;;;;20.93;49.55;101033.09;107081;1256;61270;-69
2023/06/27 09:31:34;;;;;;;3.40;0.90;;;;;;;20.72;48.15;101035.15;106309;1258;73575;-70
2023/06/27 09:34:09;;;;;;;2.80;0.80;;;;;;;20.51;48.76;101032.00;106179;1259;70984;-72
2023/06/27 09:36:40;;;;;;;2.60;0.90;;;;;;;20.54;49.56;101033.83;106179;1257;73204;-72
2023/06/27 09:39:12;;;;;;;4.90;1.30;;;;;;;20.75;49.61;101030.80;106713;1257;61158;-72
2023/06/27 09:41:46;;;;;;;4.10;0.90;;;;;;;21.03;49.74;101033.36;106466;1258;61362;-70
2023/06/27 09:44:18;;;;;;;4.70;1.00;;;;;;;21.40;48.60;101017.58;106390;1256;74678;-72
2023/06/27 09:46:47;;;;;;;3.70;1.00;;;;;;;21.68;47.11;101034.79;107136;1256;70561;-70
2023/06/27 09:49:15;;;;;;;2.10;0.70;;;;;;;21.55;46.02;101029.08;106319;1258;71181;-72
2023/06/27 09:51:49;;;;;;;4.20;0.80;;;;;;;21.48;46.42;101025.75;106322;1257;61362;-72
2023/06/27 09:54:21;;;;;;;5.20;0.90;;;;;;;21.49;45.61;101037.66;106415;1261;62741;-74
2023/06/27 09:56:50;;;;;;;2.50;0.60;;;;;;;21.61;44.65;101035.07;106714;1257;73076;-72
2023/06/27 09:59:22;;;;;;;3.00;0.70;;;;;;;21.73;44.37;101033.92;108218;1256;70001;-69
2023/06/27 10:01:52;;;;;;;3.80;1.20;;;;;;;21.89;43.83;101024.38;107042;1256;72598;-74
2023/06/27 10:04:20;;;;;;;3.20;0.80;;;;;;;22.06;45.02;101021.77;107278;1256;61264;-72
2023/06/27 10:07:07;;;;;;;2.80;0.80;;;;;;;22.35;44.22;101034.70;106095;1257;61356;-71
2023/06/27 10:09:36;;;;;;;3.40;0.80;;;;;;;22.56;44.17;101026.34;106383;1257;73500;-70
2023/06/27 10:12:03;;;;;;;3.20;0.60;;;;;;;22.56;42.71;101030.13;106668;1260;69948;-70
2023/06/27 10:14:32;;;;;;;2.90;0.80;;;;;;;22.28;42.22;101029.72;106283;1257;72704;-71
2023/06/27 10:17:02;;;;;;;2.50;0.70;;;;;;;22.07;42.80;101030.27;106713;1257;61280;-72
2023/06/27 10:19:34;;;;;;;2.40;0.50;;;;;;;21.93;42.89;101026.99;106323;1256;61391;-71
2023/06/27 10:22:09;;;;;;;1.80;0.60;;;;;;;21.81;43.54;101026.23;107476;1256;74094;-71
2023/06/27 10:24:41;;;;;;;2.20;0.60;;;;;;;21.58;43.21;101024.16;106407;1260;69128;-71
2023/06/27 10:27:09;;;;;;;4.00;0.90;;;;;;;21.42;42.40;101014.66;106370;1256;71713;-70
2023/06/27 10:29:43;;;;;;;3.70;0.80;;;;;;;21.49;43.93;101011.96;106492;1258;61654;-71
2023/06/27 10:32:14;;;;;;;2.60;0.80;;;;;;;21.59;43.54;101007.45;106370;1256;61251;-69
2023/06/27 10:34:43;;;;;;;3.70;0.80;;;;;;;21.70;44.12;101003.88;106900;1256;74701;-71
2023/06/27 10:37:11;;;;;;;1.90;0.60;;;;;;;21.93;43.98;101001.06;106709;1256;70936;-72
2023/06/27 10:39:40;;;;;;;3.30;0.60;;;;;;;22.09;42.53;101000.13;106599;1256;72721;-71
2023/06/27 10:42:29;;;;;;;1.80;0.70;;;;;;;22.24;42.09;100996.59;106672;1257;61082;-70
2023/06/27 10:44:56;;;;;;;2.50;0.60;;;;;;;22.35;40.97;101003.69;106308;1257;61186;-71
2023/06/27 10:47:22;;;;;;;2.20;0.70;;;;;;;22.44;41.14;100990.58;106338;1256;61764;-71
2023/06/27 10:49:54;;;;;;;1.60;0.60;;;;;;;22.40;42.27;100993.17;106448;1256;71509;-70
2023/06/27 10:52:25;;;;;;;2.50;0.50;;;;;;;22.33;42.63;100994.30;107057;1256;72796;-70
2023/06/27 10:55:13;;;;;;;3.80;0.70;;;;;;;22.36;41.86;101000.95;107757;1256;61391;-71
2023/06/27 10:57:45;;;;;;;2.80;0.80;;;;;;;22.45;41.02;101000.65;107089;1256;61363;-70
2023/06/27 11:00:34;;;;;;;2.00;0.60;;;;;;;22.52;40.13;101001.67;106163;1256;72486;-74
2023/06/27 11:03:05;;;;;;;2.80;0.70;;;;;;;22.60;40.88;100990.50;106740;1257;71658;-71
2023/06/27 11:05:49;;;;;;;2.40;0.80;;;;;;;22.75;41.56;100986.70;106248;1257;72507;-70
2023/06/27 11:08:19;;;;;;;2.20;0.70;;;;;;;22.96;41.42;100978.73;106406;1257;61245;-71
2023/06/27 11:11:06;;;;;;;2.60;0.70;;;;;;;23.00;41.41;100969.84;107039;1256;61250;-70
2023/06/27 11:13:35;;;;;;;2.10;0.60;;;;;;;22.99;39.93;100969.73;106364;1256;74605;-73
2023/06/27 11:16:02;;;;;;;3.00;0.90;;;;;;;22.90;38.81;100982.20;106599;1259;70640;-71
2023/06/27 11:18:29;;;;;;;3.20;0.70;;;;;;;22.92;39.53;100966.05;106520;1256;71675;-70
2023/06/27 11:20:57;;;;;;;2.40;0.70;;;;;;;23.01;40.22;100968.20;106748;1260;61649;-70
2023/06/27 11:23:25;;;;;;;4.20;0.70;;;;;;;23.12;39.76;100965.04;107975;1257;61237;-72